Etusivu
METAR-TAF:

METAR-TAF

Lentoasemat :

Chlef, Algeria

Leveyspiiri: 36-13N, Pituuspiiri: 001-20E, korkeus merenpinnasta: 143 m

Tämänhetkinen sää

Tämä raportti tehtiin 1 tunti ja 21 minuuttia sitten, kello 11.00 UTC
Tuuli 8 kn lännestä/lounaasta
Lämpötila 37°C
Kosteus 17%
Ilmanpaine 1014 hPa
Näkyvyys: 8000 m

METAR: DAOI 121100Z 24008KT 8000 NSC 37/08 Q1014

Aika: 13:21 (12:21 UTC)

Sääennuste

Tämä raportti tehtiin 1 tunti ja 21 minuuttia sitten, kello 11.00 UTC
Ennuste voimassa 12. päivästä klo 12 UTC - 13. päivään klo 12 UTC
Tuuli 10 kn lännestä/lounaasta
Näkyvyys: 8000 m
Tulossa
12. päivästä klo 20 UTC - 12. päivään klo 22 UTC
Tuuli 2 kn eri suunnista

TAF: DAOI 121100Z 1212/1312 24010KT 8000 NSC BECMG 1220/1222 VRB02KT

Säähavainnot ja -ennusteet yli 4000 lentoasemalta (METAR- ja TAF-raportit).

Käytössä olevat sääasemat on merkitty karttaan keltaisilla ja punaisilla pisteillä.

Aseta hiiri pisteen päälle nähdäksesi sääaseman nimen.

Klikkaa sitten nähdäksesi säähavainnot ja -ennusteet.

Kartan vaihtaminen: klikkaa mustalla rastilla varustettuja vihreitä pisteitä, niin voit zoomata sisään; viivalla varustettua vihreää pistettä, niin voit zoomata ulos tai vihreitä nuolia, niin pääset viereisille kartoille.


METAR-TAF: